Time;durP1;ratioP1;P1;durP2;ratioP2;P2;SDS_P1;SDS_P2;PMS_P1;PMS_P2;Temp;Humidity;BMP_temperature;BMP_pressure;BME280_temperature;BME280_humidity;BME280_pressure;Samples;Min_cycle;Max_cycle;Signal;HPM_P1;HPM_P2
2023/07/01 00:00:20;;;;;;;2.53;1.65;;;;;;;;;;21005058;28;20048;-61
2023/07/01 00:10:22;;;;;;;4.97;2.45;;;;;;;;;;21004023;28;20041;-61
2023/07/01 00:20:26;;;;;;;4.15;2.53;;;;;;;;;;21002184;28;20044;-61
2023/07/01 00:30:27;;;;;;;5.70;3.03;;;;;;;;;;21001894;28;20152;-61
2023/07/01 00:40:28;;;;;;;5.10;3.10;;;;;;;;;;21001717;28;20051;-61
2023/07/01 00:50:30;;;;;;;5.65;3.63;;;;;;;;;;21000773;28;20045;-61
2023/07/01 01:00:31;;;;;;;6.50;4.13;;;;;;;;;;21000064;28;20109;-61
2023/07/01 01:10:33;;;;;;;6.22;3.60;;;;;;;;;;20999286;28;20051;-60
2023/07/01 01:20:38;;;;;;;7.47;3.92;;;;;;;;;;20997432;28;20041;-60
2023/07/01 01:30:40;;;;;;;7.72;3.65;;;;;;;;;;20997872;28;20036;-60
2023/07/01 01:40:41;;;;;;;5.95;3.85;;;;;;;;;;20996082;28;20055;-61
2023/07/01 01:50:43;;;;;;;6.53;3.67;;;;;;;;;;20997108;28;20047;-61
2023/07/01 02:00:45;;;;;;;7.10;4.07;;;;;;;;;;20996759;28;20051;-62
2023/07/01 02:10:46;;;;;;;8.77;4.32;;;;;;;;;;20996363;28;20045;-61
2023/07/01 02:20:48;;;;;;;6.18;4.47;;;;;;;;;;20994769;28;20059;-61
2023/07/01 02:30:49;;;;;;;5.55;3.88;;;;;;;;;;20995437;28;20052;-61
2023/07/01 02:40:50;;;;;;;6.88;4.03;;;;;;;;;;20995406;28;20113;-61
2023/07/01 02:50:51;;;;;;;7.18;3.78;;;;;;;;;;20998796;28;20508;-61
2023/07/01 03:00:52;;;;;;;6.95;3.72;;;;;;;;;;21009471;28;20047;-61
2023/07/01 03:10:53;;;;;;;8.40;4.53;;;;;;;;;;21008928;28;20496;-61
2023/07/01 03:20:57;;;;;;;4.93;3.42;;;;;;;;;;21006720;28;20045;-60
2023/07/01 03:30:58;;;;;;;5.35;3.38;;;;;;;;;;21006150;28;20064;-60
2023/07/01 03:41:00;;;;;;;4.43;3.65;;;;;;;;;;21007012;28;20049;-60
2023/07/01 03:51:01;;;;;;;5.38;3.33;;;;;;;;;;21004454;28;20044;-62
2023/07/01 04:01:04;;;;;;;9.40;3.85;;;;;;;;;;21003230;28;20058;-61
2023/07/01 04:11:06;;;;;;;6.13;3.20;;;;;;;;;;21004225;28;20106;-61
2023/07/01 04:21:07;;;;;;;4.05;2.72;;;;;;;;;;21003414;28;20040;-60
2023/07/01 04:31:08;;;;;;;6.45;3.55;;;;;;;;;;21000923;28;20052;-61
2023/07/01 04:41:10;;;;;;;4.80;2.90;;;;;;;;;;21001389;28;20054;-61
2023/07/01 04:51:12;;;;;;;8.68;2.97;;;;;;;;;;21000796;28;20406;-61
2023/07/01 05:01:13;;;;;;;5.57;3.05;;;;;;;;;;21000151;28;20478;-61
2023/07/01 05:11:14;;;;;;;4.60;2.90;;;;;;;;;;20999086;28;20120;-61
2023/07/01 05:21:15;;;;;;;4.75;3.20;;;;;;;;;;20997881;28;20044;-61
2023/07/01 05:31:16;;;;;;;5.93;3.05;;;;;;;;;;20997931;28;20056;-61
2023/07/01 05:41:17;;;;;;;4.45;3.00;;;;;;;;;;20997706;28;20080;-61
2023/07/01 05:51:18;;;;;;;6.43;3.67;;;;;;;;;;20996567;28;20041;-61
2023/07/01 06:01:19;;;;;;;5.40;2.90;;;;;;;;;;20996894;28;20482;-61
2023/07/01 06:11:20;;;;;;;5.63;2.47;;;;;;;;;;20996084;28;20047;-61
2023/07/01 06:21:22;;;;;;;2.70;2.30;;;;;;;;;;20994774;28;20045;-61
2023/07/01 06:31:23;;;;;;;3.50;2.25;;;;;;;;;;21008491;28;20060;-62
2023/07/01 06:41:25;;;;;;;2.63;1.88;;;;;;;;;;21011377;28;20049;-60
2023/07/01 06:51:26;;;;;;;4.15;2.13;;;;;;;;;;21008910;28;20049;-61
2023/07/01 07:01:27;;;;;;;5.80;1.98;;;;;;;;;;21009347;28;20072;-61
2023/07/01 07:11:28;;;;;;;3.38;2.10;;;;;;;;;;21008666;28;20128;-61
2023/07/01 07:21:30;;;;;;;3.30;1.88;;;;;;;;;;21008081;28;20045;-61
2023/07/01 07:31:31;;;;;;;5.50;2.33;;;;;;;;;;21006914;28;20132;-61
2023/07/01 07:41:32;;;;;;;4.90;2.10;;;;;;;;;;21004930;28;20037;-61
2023/07/01 07:51:34;;;;;;;2.60;1.75;;;;;;;;;;21005349;28;20405;-62
2023/07/01 08:01:35;;;;;;;4.05;2.00;;;;;;;;;;21004939;28;20052;-61
2023/07/01 08:11:36;;;;;;;2.92;1.73;;;;;;;;;;21003210;28;20105;-61
2023/07/01 08:21:38;;;;;;;1.70;1.17;;;;;;;;;;21002293;28;20072;-62
2023/07/01 08:31:40;;;;;;;4.25;1.88;;;;;;;;;;21000628;28;20099;-61
2023/07/01 08:41:44;;;;;;;2.50;1.58;;;;;;;;;;21000382;28;20115;-61
2023/07/01 08:51:45;;;;;;;3.33;1.65;;;;;;;;;;20999774;28;20052;-62
2023/07/01 09:01:46;;;;;;;1.40;1.10;;;;;;;;;;20999617;28;20051;-61
2023/07/01 09:11:47;;;;;;;3.75;1.60;;;;;;;;;;20998857;28;20406;-62
2023/07/01 09:21:48;;;;;;;3.30;1.48;;;;;;;;;;20997273;28;20489;-62
2023/07/01 09:31:52;;;;;;;3.08;1.25;;;;;;;;;;20997350;28;20060;-62
2023/07/01 09:42:02;;;;;;;1.50;1.13;;;;;;;;;;20997586;28;20494;-61
2023/07/01 09:52:04;;;;;;;2.95;2.38;;;;;;;;;;20995803;28;20049;-62
2023/07/01 10:02:05;;;;;;;10.27;3.28;;;;;;;;;;20993833;28;20044;-61
2023/07/01 10:12:07;;;;;;;3.10;1.35;;;;;;;;;;20995613;28;20045;-61
2023/07/01 10:22:40;;;;;;;2.90;1.00;;;;;;;;;;20994588;28;20052;-61
2023/07/01 10:32:43;;;;;;;2.05;0.95;;;;;;;;;;20993474;28;20040;-61
2023/07/01 10:42:44;;;;;;;1.80;0.98;;;;;;;;;;20995224;28;20525;-62
2023/07/01 10:52:58;;;;;;;2.42;0.98;;;;;;;;;;20994280;28;20105;-62
2023/07/01 11:02:59;;;;;;;3.35;1.25;;;;;;;;;;20994225;28;20041;-62
2023/07/01 11:13:02;;;;;;;2.03;1.23;;;;;;;;;;20997772;28;20056;-62
2023/07/01 11:23:03;;;;;;;1.98;1.00;;;;;;;;;;21007824;28;20072;-62
2023/07/01 11:33:12;;;;;;;2.20;1.20;;;;;;;;;;21006593;28;20080;-61
2023/07/01 11:43:14;;;;;;;5.82;1.45;;;;;;;;;;21006218;28;20048;-62
2023/07/01 11:53:15;;;;;;;1.90;1.10;;;;;;;;;;21004690;28;20048;-62
2023/07/01 12:03:16;;;;;;;2.63;1.30;;;;;;;;;;21004692;28;20072;-61
2023/07/01 12:13:30;;;;;;;1.75;0.95;;;;;;;;;;21003011;28;20076;-62
2023/07/01 12:23:44;;;;;;;2.95;1.30;;;;;;;;;;21001716;28;20079;-62
2023/07/01 12:33:45;;;;;;;3.97;1.15;;;;;;;;;;21000676;28;20514;-61
2023/07/01 12:43:49;;;;;;;3.40;0.90;;;;;;;;;;21001319;28;20053;-62
2023/07/01 12:53:50;;;;;;;1.08;0.85;;;;;;;;;;20998810;28;20052;-62
2023/07/01 13:03:51;;;;;;;1.10;0.70;;;;;;;;;;20998022;28;20036;-63
2023/07/01 13:13:52;;;;;;;1.67;1.20;;;;;;;;;;20999652;28;20044;-63
2023/07/01 13:23:54;;;;;;;1.02;0.63;;;;;;;;;;20998941;28;20044;-61
2023/07/01 13:34:02;;;;;;;1.67;0.70;;;;;;;;;;20996621;28;20057;-63
2023/07/01 13:44:22;;;;;;;0.75;0.57;;;;;;;;;;20997539;28;20045;-63
2023/07/01 13:54:25;;;;;;;1.48;0.70;;;;;;;;;;20996817;28;20057;-62
2023/07/01 14:04:27;;;;;;;2.10;0.57;;;;;;;;;;20996690;28;20045;-62
2023/07/01 14:14:29;;;;;;;1.10;0.60;;;;;;;;;;20994864;28;20086;-62
2023/07/01 14:24:33;;;;;;;1.58;0.68;;;;;;;;;;20995633;28;20040;-62
2023/07/01 14:34:36;;;;;;;2.17;0.90;;;;;;;;;;20994864;28;20057;-62
2023/07/01 14:44:37;;;;;;;0.70;0.40;;;;;;;;;;20995619;28;20049;-61
2023/07/01 14:54:38;;;;;;;0.95;0.60;;;;;;;;;;21008726;28;20044;-62
2023/07/01 15:04:39;;;;;;;2.08;0.52;;;;;;;;;;21009344;28;20420;-62
2023/07/01 15:14:40;;;;;;;0.95;0.85;;;;;;;;;;21008560;28;20048;-62
2023/07/01 15:24:42;;;;;;;0.63;0.32;;;;;;;;;;21008020;28;20549;-61
2023/07/01 15:34:43;;;;;;;0.50;0.40;;;;;;;;;;21006477;28;20056;-62
2023/07/01 15:44:44;;;;;;;0.60;0.50;;;;;;;;;;21006736;28;20055;-62
2023/07/01 15:54:45;;;;;;;1.75;0.43;;;;;;;;;;21005375;28;20098;-62
2023/07/01 16:04:47;;;;;;;0.50;0.40;;;;;;;;;;21004217;28;20045;-62
2023/07/01 16:14:54;;;;;;;1.08;0.50;;;;;;;;;;21004271;28;20174;-62
2023/07/01 16:24:57;;;;;;;3.08;2.00;;;;;;;;;;21002917;28;20546;-62
2023/07/01 16:34:59;;;;;;;0.77;0.50;;;;;;;;;;21000819;28;20496;-62
2023/07/01 16:45:00;;;;;;;0.60;0.40;;;;;;;;;;20999786;28;20154;-62
2023/07/01 16:55:02;;;;;;;1.38;0.68;;;;;;;;;;21000428;28;20083;-61
2023/07/01 17:05:13;;;;;;;2.70;0.60;;;;;;;;;;20998782;28;20539;-62
2023/07/01 17:15:23;;;;;;;0.98;0.50;;;;;;;;;;20997944;28;20055;-63
2023/07/01 17:25:24;;;;;;;1.05;0.45;;;;;;;;;;20997296;28;20039;-63
2023/07/01 17:35:27;;;;;;;1.25;0.60;;;;;;;;;;20996357;28;20064;-62
2023/07/01 17:45:28;;;;;;;1.05;0.65;;;;;;;;;;20997700;28;20086;-61
2023/07/01 17:55:29;;;;;;;1.15;0.77;;;;;;;;;;20997617;28;20048;-63
2023/07/01 18:05:30;;;;;;;0.98;0.68;;;;;;;;;;20995626;28;20063;-62
2023/07/01 18:15:31;;;;;;;2.80;0.70;;;;;;;;;;20996210;28;20052;-62
2023/07/01 18:25:33;;;;;;;1.75;0.88;;;;;;;;;;21005244;28;20128;-62
2023/07/01 18:35:36;;;;;;;1.38;0.70;;;;;;;;;;21011458;28;20520;-62
2023/07/01 18:45:37;;;;;;;1.77;0.82;;;;;;;;;;21010906;28;20048;-61
2023/07/01 18:55:38;;;;;;;2.22;0.93;;;;;;;;;;21011138;28;20136;-61
2023/07/01 19:05:39;;;;;;;1.33;0.90;;;;;;;;;;21009368;28;20420;-62
2023/07/01 19:15:40;;;;;;;3.90;1.42;;;;;;;;;;21007463;28;20044;-62
2023/07/01 19:25:42;;;;;;;2.55;1.08;;;;;;;;;;21007499;28;20472;-62
2023/07/01 19:35:43;;;;;;;2.45;1.27;;;;;;;;;;21006253;28;20118;-61
2023/07/01 19:45:44;;;;;;;1.73;1.10;;;;;;;;;;21006312;28;20052;-62
2023/07/01 19:55:46;;;;;;;4.05;1.90;;;;;;;;;;21005757;28;20555;-61
2023/07/01 20:05:47;;;;;;;1.60;1.30;;;;;;;;;;21004803;28;20046;-62
2023/07/01 20:15:49;;;;;;;2.78;1.80;;;;;;;;;;21003976;28;20047;-62
2023/07/01 20:25:50;;;;;;;4.55;1.90;;;;;;;;;;21003020;28;20119;-62
2023/07/01 20:35:51;;;;;;;2.28;1.38;;;;;;;;;;21001407;28;20040;-61
2023/07/01 20:45:52;;;;;;;3.75;1.45;;;;;;;;;;21001157;28;20106;-62
2023/07/01 20:55:53;;;;;;;1.58;1.05;;;;;;;;;;21000798;28;20128;-62
2023/07/01 21:05:55;;;;;;;1.65;0.85;;;;;;;;;;20999922;28;20119;-61
2023/07/01 21:15:56;;;;;;;1.98;0.93;;;;;;;;;;20999420;28;20490;-62
2023/07/01 21:25:57;;;;;;;3.03;0.90;;;;;;;;;;20998798;28;20120;-61
2023/07/01 21:35:58;;;;;;;1.45;0.75;;;;;;;;;;20997017;28;20056;-62
2023/07/01 21:46:00;;;;;;;1.08;0.60;;;;;;;;;;20997558;28;20124;-62
2023/07/01 21:56:02;;;;;;;2.70;0.70;;;;;;;;;;20995041;28;20056;-62
2023/07/01 22:06:05;;;;;;;4.60;0.80;;;;;;;;;;20996637;28;20482;-62
2023/07/01 22:16:10;;;;;;;3.63;0.80;;;;;;;;;;20996299;28;20043;-62
2023/07/01 22:26:11;;;;;;;1.83;0.60;;;;;;;;;;20995972;28;20048;-61
2023/07/01 22:36:12;;;;;;;1.20;0.60;;;;;;;;;;20996344;28;20421;-61
2023/07/01 22:46:13;;;;;;;1.95;0.82;;;;;;;;;;20995057;28;20096;-62
2023/07/01 22:56:14;;;;;;;1.20;0.50;;;;;;;;;;20993142;28;20053;-62
2023/07/01 23:06:15;;;;;;;3.13;0.80;;;;;;;;;;20993991;28;20490;-62
2023/07/01 23:16:16;;;;;;;3.42;0.70;;;;;;;;;;21007224;28;20045;-62
2023/07/01 23:26:18;;;;;;;0.70;0.45;;;;;;;;;;21008171;28;20057;-62
2023/07/01 23:36:19;;;;;;;1.25;0.60;;;;;;;;;;21006462;28;20055;-62
2023/07/01 23:46:20;;;;;;;2.05;0.70;;;;;;;;;;21006633;28;20047;-61
2023/07/01 23:56:21;;;;;;;1.92;0.90;;;;;;;;;;21004794;28;20052;-62
